createdAt,value
2022-08-19T00:02:26.041Z,14.70
2022-08-19T00:05:04.279Z,14.00
2022-08-19T00:07:33.912Z,13.80
2022-08-19T00:10:04.108Z,13.80
2022-08-19T00:12:33.962Z,14.20
2022-08-19T00:15:14.231Z,14.10
2022-08-19T00:17:45.530Z,14.60
2022-08-19T00:20:18.117Z,15.10
2022-08-19T00:22:48.572Z,14.30
2022-08-19T00:25:19.409Z,14.30
2022-08-19T00:28:00.167Z,15.10
2022-08-19T00:30:32.790Z,14.70
2022-08-19T00:35:32.652Z,15.50
2022-08-19T00:38:02.870Z,13.70
2022-08-19T00:40:32.809Z,14.70
2022-08-19T00:43:02.499Z,15.10
2022-08-19T00:45:32.810Z,14.30
2022-08-19T00:48:06.502Z,15.20
2022-08-19T00:50:52.258Z,15.10
2022-08-19T00:53:25.480Z,15.70
2022-08-19T00:55:57.740Z,14.90
2022-08-19T00:58:33.640Z,14.10
2022-08-19T01:01:04.508Z,14.50
2022-08-19T01:03:57.233Z,14.90
2022-08-19T01:06:23.173Z,14.50
2022-08-19T01:08:52.943Z,14.70
2022-08-19T01:11:22.845Z,16.80
2022-08-19T01:13:53.640Z,15.30
2022-08-19T01:16:26.813Z,15.60
2022-08-19T01:18:57.190Z,18.00
2022-08-19T01:21:35.622Z,14.90
2022-08-19T01:24:06.442Z,15.30
2022-08-19T01:26:43.471Z,14.90
2022-08-19T01:29:13.561Z,14.40
2022-08-19T01:31:44.501Z,15.30
2022-08-19T01:34:14.200Z,15.80
2022-08-19T01:36:47.860Z,15.20
2022-08-19T01:39:20.844Z,14.90
2022-08-19T01:41:50.942Z,16.10
2022-08-19T01:44:24.130Z,15.10
2022-08-19T01:49:25.184Z,14.80
2022-08-19T01:51:55.292Z,15.50
2022-08-19T01:54:27.855Z,14.00
2022-08-19T01:57:02.367Z,18.70
2022-08-19T01:59:33.480Z,15.20
2022-08-19T02:02:03.190Z,16.10
2022-08-19T02:04:33.060Z,16.10
2022-08-19T02:07:02.913Z,15.10
2022-08-19T02:09:33.925Z,15.30
2022-08-19T02:12:04.232Z,15.70
2022-08-19T02:14:36.292Z,14.40
2022-08-19T02:17:06.210Z,15.40
2022-08-19T02:19:35.606Z,14.40
2022-08-19T02:22:08.733Z,15.20
2022-08-19T02:24:39.373Z,16.70
2022-08-19T02:27:09.182Z,15.60
2022-08-19T02:29:38.881Z,15.90
2022-08-19T02:32:09.300Z,15.60
2022-08-19T02:34:45.750Z,16.80
2022-08-19T02:37:29.715Z,14.90
2022-08-19T02:40:00.408Z,15.40
2022-08-19T02:42:30.953Z,16.80
2022-08-19T02:45:01.190Z,15.80
2022-08-19T02:47:34.030Z,14.80
2022-08-19T02:50:05.331Z,15.80
2022-08-19T02:52:36.517Z,15.30
2022-08-19T02:55:08.560Z,16.70
2022-08-19T02:57:38.570Z,15.20
2022-08-19T03:00:12.633Z,14.80
2022-08-19T03:02:42.348Z,14.60
2022-08-19T03:05:12.948Z,16.00
2022-08-19T03:07:42.659Z,15.80
2022-08-19T03:10:12.558Z,13.60
2022-08-19T03:12:41.892Z,15.30
2022-08-19T03:15:11.711Z,14.00
2022-08-19T03:17:41.250Z,14.90
2022-08-19T03:20:12.417Z,15.70
2022-08-19T03:22:42.161Z,15.00
2022-08-19T03:25:12.592Z,15.90
2022-08-19T03:27:42.531Z,15.50
2022-08-19T03:30:14.672Z,14.90
2022-08-19T03:32:57.088Z,16.20
2022-08-19T03:35:27.073Z,16.10
2022-08-19T03:37:57.417Z,14.90
2022-08-19T03:40:27.162Z,16.00
2022-08-19T03:42:57.970Z,14.40
2022-08-19T03:45:28.072Z,14.80
2022-08-19T03:47:58.967Z,15.20
2022-08-19T03:50:28.552Z,16.00
2022-08-19T03:52:58.262Z,14.30
2022-08-19T03:55:28.080Z,14.50
2022-08-19T03:57:59.314Z,14.10
2022-08-19T04:00:29.170Z,16.20
2022-08-19T04:03:00.983Z,13.60
2022-08-19T04:05:31.361Z,15.40
2022-08-19T04:08:04.002Z,15.50
2022-08-19T04:10:36.392Z,14.30
2022-08-19T04:13:07.670Z,14.30
2022-08-19T04:15:42.070Z,15.30
2022-08-19T04:18:12.354Z,14.30
2022-08-19T04:20:46.388Z,14.70
2022-08-19T04:23:16.321Z,14.30
2022-08-19T04:25:46.440Z,16.00
2022-08-19T04:28:16.101Z,14.30
2022-08-19T04:30:48.669Z,14.40
2022-08-19T04:33:25.731Z,14.40
2022-08-19T04:35:59.500Z,14.10
2022-08-19T04:38:29.211Z,14.20
2022-08-19T04:41:16.402Z,14.40
2022-08-19T04:43:49.292Z,14.50
2022-08-19T04:46:40.199Z,14.20
2022-08-19T04:49:10.405Z,14.60
2022-08-19T04:51:44.901Z,15.90
2022-08-19T04:54:14.898Z,14.70
2022-08-19T04:56:51.251Z,14.50
2022-08-19T04:59:21.773Z,13.50
2022-08-19T05:01:51.783Z,14.30
2022-08-19T05:04:22.002Z,13.10
2022-08-19T05:06:54.360Z,14.40
2022-08-19T05:09:55.425Z,13.80
2022-08-19T05:12:20.373Z,14.40
2022-08-19T05:14:52.472Z,16.90
2022-08-19T05:17:32.370Z,14.40
2022-08-19T05:20:25.601Z,15.00
2022-08-19T05:22:55.090Z,18.10
2022-08-19T05:25:25.268Z,16.20
2022-08-19T05:28:12.230Z,13.90
2022-08-19T05:30:47.593Z,13.90
2022-08-19T05:33:17.680Z,15.00
2022-08-19T05:35:49.004Z,15.30
2022-08-19T05:38:19.523Z,16.80
2022-08-19T05:40:49.940Z,14.30
2022-08-19T05:43:19.988Z,15.50
2022-08-19T05:45:51.205Z,13.80
2022-08-19T05:48:21.110Z,14.40
2022-08-19T05:50:51.342Z,14.70
2022-08-19T05:53:21.220Z,15.80
2022-08-19T05:55:51.002Z,14.30
2022-08-19T05:58:20.652Z,14.60
2022-08-19T06:00:54.940Z,14.40
2022-08-19T06:03:24.791Z,13.20
2022-08-19T06:05:55.732Z,14.60
2022-08-19T06:08:34.150Z,13.40
2022-08-19T06:11:20.540Z,13.70
2022-08-19T06:13:59.707Z,13.90
2022-08-19T06:16:32.351Z,13.50
2022-08-19T06:19:07.450Z,13.80
2022-08-19T06:21:39.260Z,12.20
2022-08-19T06:24:14.281Z,13.10
2022-08-19T06:29:24.493Z,13.30
2022-08-19T06:31:57.147Z,13.30
2022-08-19T06:34:29.123Z,13.10
2022-08-19T06:37:01.682Z,12.40
2022-08-19T06:39:35.000Z,16.80
2022-08-19T06:42:07.732Z,13.10
2022-08-19T06:44:43.045Z,14.30
2022-08-19T06:47:23.678Z,13.00
2022-08-19T06:50:03.725Z,13.30
2022-08-19T06:52:36.713Z,15.00
2022-08-19T06:55:11.024Z,11.80
2022-08-19T06:57:40.811Z,15.40
2022-08-19T07:00:15.977Z,14.60
2022-08-19T07:02:50.737Z,23.20
2022-08-19T07:05:27.395Z,12.70
2022-08-19T07:08:01.650Z,12.20
2022-08-19T07:10:35.668Z,13.10
2022-08-19T07:13:06.858Z,12.00
2022-08-19T07:15:39.776Z,11.30
2022-08-19T07:18:11.740Z,12.20
2022-08-19T07:20:43.561Z,12.20
2022-08-19T07:23:15.933Z,11.20
2022-08-19T07:25:53.004Z,10.40
2022-08-19T07:28:24.725Z,12.40
2022-08-19T07:30:55.570Z,15.20
2022-08-19T07:33:27.899Z,12.20
2022-08-19T07:35:57.741Z,14.60
2022-08-19T07:38:27.987Z,11.80
2022-08-19T07:40:57.578Z,12.50
2022-08-19T07:43:31.415Z,10.90
2022-08-19T07:46:05.668Z,11.90
2022-08-19T07:48:35.438Z,12.10
2022-08-19T07:51:08.836Z,13.00
2022-08-19T07:53:39.919Z,11.80
2022-08-19T07:56:09.821Z,13.50
2022-08-19T07:58:43.183Z,11.20
2022-08-19T08:01:16.077Z,13.80
2022-08-19T08:06:50.723Z,10.70
2022-08-19T08:09:24.134Z,12.60
2022-08-19T08:11:57.701Z,10.80
2022-08-19T08:14:35.111Z,15.60
2022-08-19T08:17:11.007Z,10.70
2022-08-19T08:19:42.356Z,10.80
2022-08-19T08:22:43.743Z,11.10
2022-08-19T08:25:15.903Z,11.00
2022-08-19T08:27:47.202Z,11.10
2022-08-19T08:30:23.008Z,10.90
2022-08-19T08:32:53.571Z,10.80
2022-08-19T08:35:25.382Z,11.40
2022-08-19T08:37:57.184Z,13.70
2022-08-19T08:40:35.182Z,15.80
2022-08-19T08:43:11.540Z,14.90
2022-08-19T08:45:53.471Z,14.40
2022-08-19T08:48:36.493Z,12.20
2022-08-19T08:51:10.662Z,10.20
2022-08-19T08:53:42.142Z,10.80
2022-08-19T08:56:13.721Z,10.60
2022-08-19T08:58:54.559Z,13.20
2022-08-19T09:01:25.019Z,11.30
2022-08-19T09:04:02.693Z,10.50
2022-08-19T09:06:56.320Z,13.40
2022-08-19T09:09:33.192Z,11.10
2022-08-19T09:12:11.806Z,11.60
2022-08-19T09:14:52.071Z,13.20
2022-08-19T09:17:31.483Z,11.50
2022-08-19T09:20:09.015Z,10.90
2022-08-19T09:22:40.194Z,10.90
2022-08-19T09:25:12.414Z,12.10
2022-08-19T09:27:43.708Z,10.50
2022-08-19T09:30:17.326Z,11.60
2022-08-19T09:32:47.305Z,11.20
2022-08-19T09:35:25.014Z,10.70
2022-08-19T09:37:57.596Z,10.90
2022-08-19T09:40:30.602Z,11.10
2022-08-19T09:43:03.283Z,13.50
2022-08-19T09:45:40.050Z,11.30
2022-08-19T09:48:09.770Z,11.10
2022-08-19T09:50:51.743Z,16.10
2022-08-19T09:53:23.110Z,10.40
2022-08-19T09:55:57.333Z,13.20
2022-08-19T09:58:28.611Z,14.00
2022-08-19T10:01:00.294Z,13.10
2022-08-19T10:03:31.618Z,11.90
2022-08-19T10:06:02.853Z,10.80
2022-08-19T10:08:35.780Z,18.50
2022-08-19T10:11:28.114Z,11.50
2022-08-19T10:13:56.446Z,10.10
2022-08-19T10:16:30.336Z,12.40
2022-08-19T10:19:01.011Z,12.40
2022-08-19T10:21:35.620Z,11.30
2022-08-19T10:24:09.322Z,10.30
2022-08-19T10:26:45.582Z,10.70
2022-08-19T10:29:32.148Z,9.80
2022-08-19T10:32:05.257Z,10.30
2022-08-19T10:34:48.990Z,10.10
2022-08-19T10:37:28.866Z,10.20
2022-08-19T10:40:02.597Z,10.70
2022-08-19T10:42:35.550Z,14.30
2022-08-19T10:45:07.992Z,10.00
2022-08-19T10:47:38.470Z,9.90
2022-08-19T10:50:28.735Z,11.60
2022-08-19T10:53:04.992Z,9.50
2022-08-19T10:55:57.322Z,9.90
2022-08-19T10:58:27.110Z,11.70
2022-08-19T11:01:01.029Z,9.90
2022-08-19T11:03:31.312Z,12.20
2022-08-19T11:06:07.760Z,13.60
2022-08-19T11:08:39.210Z,10.50
2022-08-19T11:11:09.856Z,12.80
2022-08-19T11:13:42.034Z,9.50
2022-08-19T11:16:14.919Z,9.70
2022-08-19T11:18:46.546Z,10.00
2022-08-19T11:21:22.560Z,10.00
2022-08-19T11:23:55.968Z,10.60
2022-08-19T11:26:26.151Z,11.70
2022-08-19T11:28:56.670Z,9.40
2022-08-19T11:31:28.927Z,11.30
2022-08-19T11:34:00.999Z,8.90
2022-08-19T11:36:32.023Z,10.70
2022-08-19T11:39:02.970Z,9.20
2022-08-19T11:41:32.640Z,12.30
2022-08-19T11:44:03.900Z,9.80
2022-08-19T11:46:34.229Z,10.60
2022-08-19T11:49:06.588Z,14.00
2022-08-19T11:51:37.843Z,10.40
2022-08-19T11:54:08.174Z,10.20
2022-08-19T11:56:39.542Z,10.40
2022-08-19T11:59:14.666Z,8.60
2022-08-19T12:01:44.973Z,13.50
2022-08-19T12:04:15.078Z,12.90
2022-08-19T12:06:45.003Z,10.30
2022-08-19T12:09:16.182Z,9.00
2022-08-19T12:11:46.411Z,10.30
2022-08-19T12:14:17.083Z,9.30
2022-08-19T12:16:52.428Z,12.20
2022-08-19T12:19:22.904Z,10.10
2022-08-19T12:22:05.742Z,9.40
2022-08-19T12:24:36.080Z,8.70
2022-08-19T12:27:06.050Z,8.70
2022-08-19T12:29:42.685Z,8.50
2022-08-19T12:32:12.451Z,8.90
2022-08-19T12:34:45.281Z,11.40
2022-08-19T12:37:17.870Z,8.90
2022-08-19T12:39:51.163Z,9.30
2022-08-19T12:42:23.071Z,9.60
2022-08-19T12:44:53.662Z,10.10
2022-08-19T12:47:23.980Z,9.30
2022-08-19T12:49:55.881Z,9.20
2022-08-19T12:52:27.722Z,10.70
2022-08-19T12:54:58.553Z,9.80
2022-08-19T12:57:33.750Z,10.90
2022-08-19T13:00:09.973Z,9.90
2022-08-19T13:02:41.259Z,8.50
2022-08-19T13:05:15.210Z,9.60
2022-08-19T13:07:45.043Z,8.80
2022-08-19T13:10:18.622Z,9.10
2022-08-19T13:12:50.135Z,9.10
2022-08-19T13:15:23.929Z,9.40
2022-08-19T13:17:56.154Z,8.90
2022-08-19T13:20:26.541Z,9.10
2022-08-19T13:22:57.854Z,9.70
2022-08-19T13:25:27.662Z,9.30
2022-08-19T13:27:57.393Z,10.60
2022-08-19T13:30:45.122Z,9.10
2022-08-19T13:33:17.653Z,9.40
2022-08-19T13:35:52.412Z,9.40
2022-08-19T13:38:23.386Z,9.40
2022-08-19T13:40:55.928Z,8.50
2022-08-19T13:43:27.810Z,8.10
2022-08-19T13:45:58.783Z,10.40
2022-08-19T13:48:29.432Z,9.30
2022-08-19T13:50:59.152Z,8.50
2022-08-19T13:53:28.720Z,6.90
2022-08-19T13:55:58.548Z,13.20
2022-08-19T13:58:27.892Z,9.10
2022-08-19T14:00:57.728Z,8.10
2022-08-19T14:03:27.411Z,8.20
2022-08-19T14:05:57.080Z,9.00
2022-08-19T14:08:31.431Z,11.20
2022-08-19T14:11:06.298Z,9.10
2022-08-19T14:13:36.671Z,8.70
2022-08-19T14:16:10.523Z,9.00
2022-08-19T14:18:40.773Z,9.10
2022-08-19T14:21:17.901Z,11.30
2022-08-19T14:23:47.948Z,8.40
2022-08-19T14:26:20.420Z,7.50
2022-08-19T14:28:52.671Z,7.70
2022-08-19T14:31:29.009Z,7.90
2022-08-19T14:34:03.321Z,8.40
2022-08-19T14:36:38.979Z,12.30
2022-08-19T14:39:10.196Z,6.90
2022-08-19T14:41:42.651Z,7.10
2022-08-19T14:44:13.813Z,9.30
2022-08-19T14:46:49.251Z,8.90
2022-08-19T14:49:20.610Z,7.30
2022-08-19T14:51:59.685Z,9.10
2022-08-19T14:54:29.750Z,8.80
2022-08-19T14:57:00.541Z,14.20
2022-08-19T14:59:30.180Z,10.80
2022-08-19T15:02:00.540Z,9.50
2022-08-19T15:04:58.121Z,8.30
2022-08-19T15:07:29.991Z,8.20
2022-08-19T15:10:00.346Z,7.70
2022-08-19T15:12:31.075Z,7.90
2022-08-19T15:15:01.149Z,8.30
2022-08-19T15:17:43.589Z,8.20
2022-08-19T15:20:21.792Z,9.70
2022-08-19T15:22:52.113Z,9.00
2022-08-19T15:25:22.361Z,8.70
2022-08-19T15:27:53.594Z,8.80
2022-08-19T15:30:25.473Z,10.30
2022-08-19T15:32:55.745Z,8.30
2022-08-19T15:35:26.207Z,10.40
2022-08-19T15:37:56.766Z,9.90
2022-08-19T15:40:29.833Z,9.60
2022-08-19T15:43:00.773Z,8.90
2022-08-19T15:45:33.971Z,9.20
2022-08-19T15:48:06.572Z,9.40
2022-08-19T15:53:10.731Z,12.40
2022-08-19T15:55:45.769Z,10.60
2022-08-19T15:58:33.888Z,9.90
2022-08-19T16:01:26.850Z,12.70
2022-08-19T16:04:16.961Z,14.30
2022-08-19T16:06:51.461Z,10.60
2022-08-19T16:09:27.297Z,11.30
2022-08-19T16:12:01.684Z,15.20
2022-08-19T16:14:35.531Z,12.80
2022-08-19T16:17:05.574Z,9.50
2022-08-19T16:19:35.536Z,10.20
2022-08-19T16:22:06.805Z,9.60
2022-08-19T16:24:36.881Z,10.00
2022-08-19T16:27:06.901Z,17.60
2022-08-19T16:29:39.791Z,8.20
2022-08-19T16:32:14.722Z,9.10
2022-08-19T16:34:45.822Z,9.70
2022-08-19T16:37:19.153Z,8.50
2022-08-19T16:39:51.215Z,9.40
2022-08-19T16:42:23.793Z,10.50
2022-08-19T16:47:22.074Z,11.70
2022-08-19T16:49:53.749Z,12.90
2022-08-19T16:52:26.837Z,11.00
2022-08-19T16:54:56.566Z,10.70
2022-08-19T16:57:26.312Z,11.00
2022-08-19T16:59:56.062Z,11.20
2022-08-19T17:02:29.706Z,9.40
2022-08-19T17:05:04.122Z,9.10
2022-08-19T17:07:33.843Z,10.10
2022-08-19T17:10:05.666Z,9.90
2022-08-19T17:12:37.130Z,9.60
2022-08-19T17:15:09.364Z,12.40
2022-08-19T17:17:41.097Z,11.30
2022-08-19T17:20:11.891Z,13.40
2022-08-19T17:22:41.287Z,11.00
2022-08-19T17:25:11.584Z,11.60
2022-08-19T17:27:41.442Z,12.50
2022-08-19T17:30:12.352Z,10.20
2022-08-19T17:32:42.072Z,11.40
2022-08-19T17:35:12.181Z,15.70
2022-08-19T17:37:42.932Z,12.80
2022-08-19T17:40:15.011Z,10.10
2022-08-19T17:42:49.520Z,9.50
2022-08-19T17:45:22.018Z,11.80
2022-08-19T17:47:51.898Z,10.20
2022-08-19T17:50:22.181Z,11.20
2022-08-19T17:52:52.380Z,11.60
2022-08-19T17:55:24.541Z,10.50
2022-08-19T17:57:54.329Z,10.70
2022-08-19T18:00:24.490Z,12.70
2022-08-19T18:02:59.981Z,11.90
2022-08-19T18:05:32.583Z,10.80
2022-08-19T18:08:04.212Z,11.00
2022-08-19T18:10:35.238Z,13.30
2022-08-19T18:13:17.337Z,14.20
2022-08-19T18:15:49.855Z,11.40
2022-08-19T18:18:21.253Z,11.50
2022-08-19T18:20:51.768Z,11.00
2022-08-19T18:23:44.404Z,11.90
2022-08-19T18:26:11.888Z,10.20
2022-08-19T18:28:49.984Z,10.50
2022-08-19T18:31:31.003Z,10.00
2022-08-19T18:34:05.212Z,10.00
2022-08-19T18:36:53.412Z,11.70
2022-08-19T18:39:45.235Z,9.60
2022-08-19T18:42:38.743Z,9.70
2022-08-19T18:45:30.403Z,10.00
2022-08-19T18:48:26.944Z,10.00
2022-08-19T18:51:00.987Z,13.10
2022-08-19T18:53:38.142Z,10.20
2022-08-19T18:56:13.385Z,10.60
2022-08-19T18:58:46.033Z,10.70
2022-08-19T19:01:24.463Z,10.30
2022-08-19T19:03:59.677Z,10.00
2022-08-19T19:06:37.840Z,12.60
2022-08-19T19:09:11.102Z,14.00
2022-08-19T19:11:45.914Z,14.30
2022-08-19T19:14:47.706Z,9.90
2022-08-19T19:17:17.516Z,13.80
2022-08-19T19:19:48.460Z,10.30
2022-08-19T19:22:21.462Z,10.10
2022-08-19T19:24:54.122Z,9.30
2022-08-19T19:27:26.934Z,13.20
2022-08-19T19:29:57.578Z,11.80
2022-08-19T19:32:34.789Z,11.00
2022-08-19T19:35:10.272Z,9.20
2022-08-19T19:37:40.157Z,14.00
2022-08-19T19:40:11.174Z,12.50
2022-08-19T19:42:40.812Z,13.50
2022-08-19T19:45:13.123Z,14.00
2022-08-19T19:47:44.183Z,10.10
2022-08-19T19:50:16.306Z,11.30
2022-08-19T19:52:47.663Z,11.40
2022-08-19T19:55:21.330Z,14.10
2022-08-19T19:57:54.489Z,11.00
2022-08-19T20:00:25.412Z,14.00
2022-08-19T20:02:55.510Z,14.50
2022-08-19T20:05:25.790Z,9.70
2022-08-19T20:08:14.304Z,11.10
2022-08-19T20:10:44.901Z,15.20
2022-08-19T20:13:15.860Z,12.10
2022-08-19T20:15:46.211Z,12.00
2022-08-19T20:18:15.910Z,11.80
2022-08-19T20:20:46.162Z,13.20
2022-08-19T20:23:15.872Z,15.70
2022-08-19T20:25:45.453Z,12.40
2022-08-19T20:28:15.072Z,12.90
2022-08-19T20:30:46.539Z,10.80
2022-08-19T20:35:46.253Z,12.80
2022-08-19T20:38:16.315Z,10.80
2022-08-19T20:40:46.072Z,10.30
2022-08-19T20:43:15.842Z,10.90
2022-08-19T20:45:46.613Z,11.70
2022-08-19T20:48:16.202Z,10.80
2022-08-19T20:50:45.731Z,12.10
2022-08-19T20:53:18.582Z,12.50
2022-08-19T20:55:51.400Z,12.70
2022-08-19T20:58:22.331Z,12.60
2022-08-19T21:00:56.793Z,11.10
2022-08-19T21:03:33.601Z,13.00
2022-08-19T21:06:13.826Z,12.20
2022-08-19T21:08:43.717Z,10.60
2022-08-19T21:11:14.811Z,10.40
2022-08-19T21:13:50.503Z,11.40
2022-08-19T21:16:20.159Z,12.60
2022-08-19T21:18:49.882Z,10.60
2022-08-19T21:21:19.493Z,12.70
2022-08-19T21:23:49.657Z,15.40
2022-08-19T21:26:20.021Z,14.60
2022-08-19T21:28:49.805Z,10.50
2022-08-19T21:31:20.511Z,12.30
2022-08-19T21:33:50.453Z,12.20
2022-08-19T21:36:20.151Z,12.10
2022-08-19T21:38:49.873Z,12.30
2022-08-19T21:41:19.750Z,10.90
2022-08-19T21:43:49.803Z,11.90
2022-08-19T21:46:19.683Z,12.40
2022-08-19T21:48:49.402Z,12.80
2022-08-19T21:51:19.110Z,14.00
2022-08-19T21:53:52.947Z,10.80
2022-08-19T21:56:22.901Z,11.90
2022-08-19T21:58:55.310Z,11.10
2022-08-19T22:01:25.140Z,11.30
2022-08-19T22:03:55.563Z,11.10
2022-08-19T22:06:26.605Z,12.00
2022-08-19T22:08:56.967Z,11.30
2022-08-19T22:11:28.104Z,11.30
2022-08-19T22:13:58.147Z,13.10
2022-08-19T22:16:29.165Z,13.00
2022-08-19T22:18:59.921Z,15.60
2022-08-19T22:21:40.187Z,20.30
2022-08-19T22:24:11.030Z,16.40
2022-08-19T22:26:40.920Z,15.10
2022-08-19T22:29:10.733Z,14.90
2022-08-19T22:31:46.382Z,15.70
2022-08-19T22:34:24.553Z,13.50
2022-08-19T22:36:54.123Z,16.80
2022-08-19T22:39:23.649Z,19.70
2022-08-19T22:41:53.422Z,15.80
2022-08-19T22:44:23.223Z,15.10
2022-08-19T22:46:52.971Z,15.40
2022-08-19T22:49:22.553Z,13.20
2022-08-19T22:52:10.171Z,12.40
2022-08-19T22:54:40.029Z,14.30
2022-08-19T22:57:10.940Z,14.80
2022-08-19T22:59:41.221Z,13.50
2022-08-19T23:02:11.507Z,13.80
2022-08-19T23:04:41.120Z,14.70
2022-08-19T23:07:10.961Z,14.60
2022-08-19T23:09:42.091Z,11.80
2022-08-19T23:12:13.811Z,12.90
2022-08-19T23:14:43.880Z,11.40
2022-08-19T23:17:13.818Z,13.80
2022-08-19T23:19:43.468Z,13.90
2022-08-19T23:22:17.194Z,14.80
2022-08-19T23:24:46.773Z,14.70
2022-08-19T23:27:34.264Z,15.30
2022-08-19T23:30:22.869Z,15.50
2022-08-19T23:32:52.711Z,13.20
2022-08-19T23:35:23.161Z,14.10
2022-08-19T23:37:53.479Z,13.90
2022-08-19T23:40:23.068Z,13.90
2022-08-19T23:42:53.232Z,15.50
2022-08-19T23:45:25.444Z,16.80
2022-08-19T23:47:56.439Z,15.50
2022-08-19T23:50:28.301Z,16.70
2022-08-19T23:53:00.510Z,15.80
2022-08-19T23:55:33.070Z,12.20
2022-08-19T23:58:03.061Z,13.30
